createdAt,value
2022-12-11T00:00:26.581Z,-7.71
2022-12-11T00:03:18.938Z,-7.70
2022-12-11T00:05:51.014Z,-7.74
2022-12-11T00:08:21.112Z,-7.77
2022-12-11T00:10:51.892Z,-7.75
2022-12-11T00:13:21.864Z,-7.79
2022-12-11T00:15:52.234Z,-7.76
2022-12-11T00:18:22.173Z,-7.64
2022-12-11T00:20:54.201Z,-7.60
2022-12-11T00:23:23.662Z,-7.60
2022-12-11T00:25:54.503Z,-7.55
2022-12-11T00:28:24.881Z,-7.88
2022-12-11T00:30:55.425Z,-7.49
2022-12-11T00:33:25.342Z,-7.42
2022-12-11T00:35:57.222Z,-7.45
2022-12-11T00:38:27.363Z,-7.48
2022-12-11T00:41:01.472Z,-7.51
2022-12-11T00:43:31.393Z,-7.50
2022-12-11T00:46:01.962Z,-7.36
2022-12-11T00:48:32.108Z,-7.38
2022-12-11T00:51:04.079Z,-7.38
2022-12-11T00:53:34.171Z,-7.39
2022-12-11T00:56:11.144Z,-7.29
2022-12-11T00:58:41.123Z,-7.33
2022-12-11T01:01:13.522Z,-7.32
2022-12-11T01:03:43.468Z,-7.30
2022-12-11T01:06:19.133Z,-7.24
2022-12-11T01:09:09.763Z,-7.18
2022-12-11T01:11:39.813Z,-7.13
2022-12-11T01:14:10.530Z,-7.11
2022-12-11T01:16:40.930Z,-7.00
2022-12-11T01:19:10.962Z,-6.98
2022-12-11T01:21:42.772Z,-6.93
2022-12-11T01:24:12.783Z,-6.89
2022-12-11T01:26:43.230Z,-6.80
2022-12-11T01:29:13.083Z,-6.76
2022-12-11T01:31:44.071Z,-6.78
2022-12-11T01:34:14.015Z,-6.73
2022-12-11T01:36:45.973Z,-6.72
2022-12-11T01:39:15.923Z,-6.69
2022-12-11T01:41:46.303Z,-6.66
2022-12-11T01:44:54.802Z,-6.65
2022-12-11T01:47:25.303Z,-6.65
2022-12-11T01:49:55.273Z,-6.58
2022-12-11T01:52:27.193Z,-6.60
2022-12-11T01:54:57.181Z,-6.64
2022-12-11T01:57:27.821Z,-6.58
2022-12-11T01:59:58.783Z,-6.51
2022-12-11T02:02:32.550Z,-6.59
2022-12-11T02:05:04.943Z,-6.55
2022-12-11T02:07:40.824Z,-6.52
2022-12-11T02:10:13.613Z,-6.57
2022-12-11T02:12:52.395Z,-6.56
2022-12-11T02:15:32.896Z,-6.54
2022-12-11T02:18:16.733Z,-6.48
2022-12-11T02:20:54.852Z,-6.46
2022-12-11T02:23:53.884Z,-6.40
2022-12-11T02:26:56.895Z,-6.37
2022-12-11T02:29:35.054Z,-6.38
2022-12-11T02:32:12.117Z,-6.27
2022-12-11T02:34:46.774Z,-6.15
2022-12-11T02:37:21.927Z,-6.13
2022-12-11T02:39:55.665Z,-6.19
2022-12-11T02:42:30.123Z,-6.20
2022-12-11T02:45:03.365Z,-6.15
2022-12-11T02:47:35.267Z,-6.12
2022-12-11T02:50:10.143Z,-6.10
2022-12-11T02:52:41.653Z,-6.03
2022-12-11T02:55:14.353Z,-6.03
2022-12-11T02:57:49.515Z,-6.03
2022-12-11T03:00:22.415Z,-6.00
2022-12-11T03:02:52.483Z,-5.95
2022-12-11T03:05:23.056Z,-5.95
2022-12-11T03:07:53.233Z,-5.89
2022-12-11T03:10:23.824Z,-5.90
2022-12-11T03:12:57.244Z,-5.86
2022-12-11T03:15:38.046Z,-5.81
2022-12-11T03:18:15.777Z,-5.77
2022-12-11T03:20:47.715Z,-5.77
2022-12-11T03:23:25.115Z,-5.68
2022-12-11T03:25:58.514Z,-5.62
2022-12-11T03:28:35.135Z,-5.60
2022-12-11T03:31:12.920Z,-5.58
2022-12-11T03:33:47.013Z,-5.59
2022-12-11T03:36:23.982Z,-5.57
2022-12-11T03:38:56.023Z,-5.57
2022-12-11T03:41:29.505Z,-5.56
2022-12-11T03:44:00.625Z,-5.51
2022-12-11T03:46:34.976Z,-5.41
2022-12-11T03:49:10.885Z,-5.42
2022-12-11T03:51:42.683Z,-5.41
2022-12-11T03:54:12.903Z,-5.41
2022-12-11T03:56:44.857Z,-5.41
2022-12-11T03:59:15.416Z,-5.36
2022-12-11T04:01:47.213Z,-5.34
2022-12-11T04:04:17.250Z,-5.31
2022-12-11T04:06:47.864Z,-5.30
2022-12-11T04:09:17.885Z,-5.27
2022-12-11T04:11:48.283Z,-5.26
2022-12-11T04:14:35.213Z,-5.26
2022-12-11T04:17:07.312Z,-5.26
2022-12-11T04:19:54.775Z,-5.25
2022-12-11T04:22:44.773Z,-5.26
2022-12-11T04:25:14.773Z,-5.25
2022-12-11T04:27:51.662Z,-5.25
2022-12-11T04:30:24.678Z,-5.27
2022-12-11T04:32:59.144Z,-5.22
2022-12-11T04:35:29.316Z,-5.22
2022-12-11T04:38:00.083Z,-5.19
2022-12-11T04:40:30.074Z,-5.11
2022-12-11T04:43:00.605Z,-5.04
2022-12-11T04:45:31.598Z,-5.01
2022-12-11T04:48:03.503Z,-5.38
2022-12-11T04:50:33.154Z,-4.99
2022-12-11T04:53:03.363Z,-5.00
2022-12-11T04:55:33.472Z,-4.99
2022-12-11T04:58:03.795Z,-5.00
2022-12-11T05:00:33.673Z,-5.02
2022-12-11T05:03:06.038Z,-5.00
2022-12-11T05:05:36.165Z,-4.94
2022-12-11T05:08:07.037Z,-4.92
2022-12-11T05:10:37.063Z,-4.88
2022-12-11T05:13:07.554Z,-4.88
2022-12-11T05:15:39.951Z,-4.85
2022-12-11T05:18:12.023Z,-4.82
2022-12-11T05:20:41.903Z,-4.78
2022-12-11T05:23:12.286Z,-4.80
2022-12-11T05:25:42.372Z,-4.85
2022-12-11T05:28:12.643Z,-4.84
2022-12-11T05:30:42.813Z,-4.80
2022-12-11T05:33:14.725Z,-4.82
2022-12-11T05:35:48.712Z,-4.79
2022-12-11T05:38:18.998Z,-4.79
2022-12-11T05:40:59.253Z,-4.77
2022-12-11T05:43:31.236Z,-4.75
2022-12-11T05:46:06.684Z,-4.72
2022-12-11T05:48:39.193Z,-4.73
2022-12-11T05:51:10.390Z,-4.72
2022-12-11T05:53:41.761Z,-4.73
2022-12-11T05:56:14.074Z,-4.71
2022-12-11T05:58:45.461Z,-4.62
2022-12-11T06:01:18.383Z,-4.59
2022-12-11T06:03:50.232Z,-4.56
2022-12-11T06:06:20.411Z,-4.53
2022-12-11T06:08:52.972Z,-4.53
2022-12-11T06:11:24.571Z,-4.50
2022-12-11T06:13:55.630Z,-4.47
2022-12-11T06:16:26.156Z,-4.44
2022-12-11T06:18:58.562Z,-4.43
2022-12-11T06:21:30.285Z,-4.40
2022-12-11T06:24:02.594Z,-4.37
2022-12-11T06:26:33.531Z,-4.36
2022-12-11T06:29:08.893Z,-4.36
2022-12-11T06:31:41.033Z,-4.33
2022-12-11T06:34:14.561Z,-4.29
2022-12-11T06:36:44.682Z,-4.26
2022-12-11T06:39:15.172Z,-4.25
2022-12-11T06:41:45.420Z,-4.23
2022-12-11T06:44:15.820Z,-4.21
2022-12-11T06:46:45.958Z,-4.18
2022-12-11T06:49:17.842Z,-4.17
2022-12-11T06:51:47.442Z,-4.14
2022-12-11T06:54:17.881Z,-4.09
2022-12-11T06:56:47.972Z,-4.09
2022-12-11T06:59:19.244Z,-4.05
2022-12-11T07:01:49.403Z,-4.03
2022-12-11T07:04:24.941Z,-4.05
2022-12-11T07:06:55.412Z,-4.02
2022-12-11T07:09:26.612Z,-4.03
2022-12-11T07:11:56.651Z,-4.02
2022-12-11T07:14:27.163Z,-3.97
2022-12-11T07:16:57.571Z,-3.96
2022-12-11T07:19:29.971Z,-3.94
2022-12-11T07:22:00.211Z,-3.90
2022-12-11T07:24:31.782Z,-3.84
2022-12-11T07:27:02.312Z,-3.87
2022-12-11T07:29:32.683Z,-3.86
2022-12-11T07:32:03.196Z,-3.85
2022-12-11T07:34:35.408Z,-3.85
2022-12-11T07:37:05.561Z,-3.79
2022-12-11T07:39:36.234Z,-3.72
2022-12-11T07:42:06.831Z,-3.70
2022-12-11T07:44:37.443Z,-3.67
2022-12-11T07:47:07.788Z,-3.64
2022-12-11T07:49:42.627Z,-3.63
2022-12-11T07:52:12.600Z,-3.59
2022-12-11T07:54:43.814Z,-3.55
2022-12-11T07:57:14.496Z,-3.49
2022-12-11T07:59:45.060Z,-3.43
2022-12-11T08:02:15.251Z,-3.38
2022-12-11T08:04:50.340Z,-3.33
2022-12-11T08:07:20.670Z,-3.28
2022-12-11T08:09:51.363Z,-3.25
2022-12-11T08:12:21.563Z,-3.26
2022-12-11T08:14:53.571Z,-3.25
2022-12-11T08:17:29.580Z,-3.22
2022-12-11T08:20:03.562Z,-3.22
2022-12-11T08:22:33.560Z,-3.17
2022-12-11T08:25:04.143Z,-3.17
2022-12-11T08:27:34.640Z,-3.14
2022-12-11T08:30:06.279Z,-3.13
2022-12-11T08:32:37.581Z,-3.15
2022-12-11T08:35:11.537Z,-3.17
2022-12-11T08:37:43.517Z,-3.20
2022-12-11T08:40:18.171Z,-3.23
2022-12-11T08:42:48.610Z,-3.30
2022-12-11T08:45:21.520Z,-3.29
2022-12-11T08:47:51.674Z,-3.33
2022-12-11T08:50:28.878Z,-3.35
2022-12-11T08:52:59.732Z,-3.42
2022-12-11T08:55:32.578Z,-3.46
2022-12-11T08:58:04.440Z,-3.43
2022-12-11T09:00:37.960Z,-3.41
2022-12-11T09:03:12.790Z,-3.40
2022-12-11T09:05:45.897Z,-3.40
2022-12-11T09:08:18.426Z,-3.47
2022-12-11T09:10:49.081Z,-3.43
2022-12-11T09:13:21.266Z,-3.43
2022-12-11T09:15:54.215Z,-3.43
2022-12-11T09:18:26.041Z,-3.41
2022-12-11T09:21:06.332Z,-3.41
2022-12-11T09:23:37.223Z,-3.39
2022-12-11T09:26:08.899Z,-3.41
2022-12-11T09:28:42.852Z,-3.42
2022-12-11T09:31:19.404Z,-3.37
2022-12-11T09:33:49.642Z,-3.35
2022-12-11T09:36:21.760Z,-3.34
2022-12-11T09:38:52.059Z,-3.29
2022-12-11T09:41:48.060Z,-3.26
2022-12-11T09:44:24.910Z,-3.22
2022-12-11T09:46:55.583Z,-3.19
2022-12-11T09:49:33.191Z,-3.20
2022-12-11T09:52:16.033Z,-3.16
2022-12-11T09:54:52.191Z,-3.13
2022-12-11T09:57:44.941Z,-3.11
2022-12-11T10:00:23.402Z,-3.07
2022-12-11T10:03:28.512Z,-3.00
2022-12-11T10:06:05.293Z,-3.04
2022-12-11T10:08:46.602Z,-3.02
2022-12-11T10:11:34.676Z,-3.04
2022-12-11T10:14:15.593Z,-3.03
2022-12-11T10:16:49.081Z,-2.95
2022-12-11T10:19:22.282Z,-2.92
2022-12-11T10:21:53.380Z,-2.92
2022-12-11T10:25:07.505Z,-2.88
2022-12-11T10:27:22.726Z,-2.86
2022-12-11T10:30:14.980Z,-2.86
2022-12-11T10:32:55.611Z,-2.79
2022-12-11T10:35:38.120Z,-2.74
2022-12-11T10:38:22.534Z,-2.72
2022-12-11T10:40:57.543Z,-2.66
2022-12-11T10:43:39.673Z,-2.61
2022-12-11T10:46:18.536Z,-2.56
2022-12-11T10:48:50.928Z,-2.46
2022-12-11T10:51:22.724Z,-2.37
2022-12-11T10:53:54.371Z,-2.29
2022-12-11T10:56:31.306Z,-2.22
2022-12-11T10:59:03.306Z,-2.17
2022-12-11T11:01:34.646Z,-2.09
2022-12-11T11:04:08.182Z,-2.03
2022-12-11T11:06:38.619Z,-1.97
2022-12-11T11:09:30.113Z,-1.88
2022-12-11T11:12:07.462Z,-1.80
2022-12-11T11:14:39.446Z,-1.72
2022-12-11T11:17:17.655Z,-1.66
2022-12-11T11:19:50.768Z,-1.60
2022-12-11T11:22:22.144Z,-1.54
2022-12-11T11:24:57.398Z,-1.48
2022-12-11T11:27:36.215Z,-1.44
2022-12-11T11:30:09.755Z,-1.42
2022-12-11T11:32:42.746Z,-1.32
2022-12-11T11:35:22.546Z,-1.28
2022-12-11T11:38:04.006Z,-1.24
2022-12-11T11:40:38.975Z,-1.14
2022-12-11T11:43:18.861Z,-1.11
2022-12-11T11:45:55.467Z,-1.02
2022-12-11T11:48:37.577Z,-0.94
2022-12-11T11:51:16.327Z,-0.94
2022-12-11T11:53:51.487Z,-0.92
2022-12-11T11:56:27.746Z,-0.85
2022-12-11T11:59:12.845Z,-0.78
2022-12-11T12:01:45.029Z,-0.79
2022-12-11T12:04:16.306Z,-0.79
2022-12-11T12:07:10.516Z,-0.77
2022-12-11T12:09:52.396Z,-0.74
2022-12-11T12:12:34.296Z,-0.67
2022-12-11T12:15:18.696Z,-0.67
2022-12-11T12:17:56.039Z,-0.66
2022-12-11T12:20:45.009Z,-0.62
2022-12-11T12:23:49.287Z,-0.62
2022-12-11T12:26:28.599Z,-0.59
2022-12-11T12:29:11.398Z,-0.57
2022-12-11T12:31:57.679Z,-0.55
2022-12-11T12:34:44.321Z,-0.50
2022-12-11T12:37:24.835Z,-0.59
2022-12-11T12:40:06.506Z,-0.57
2022-12-11T12:42:47.287Z,-0.58
2022-12-11T12:45:27.930Z,-0.62
2022-12-11T12:48:00.306Z,-0.62
2022-12-11T12:50:38.138Z,-0.64
2022-12-11T12:53:10.137Z,-0.66
2022-12-11T12:55:41.118Z,-0.63
2022-12-11T12:58:28.427Z,-0.65
2022-12-11T13:01:10.436Z,-0.65
2022-12-11T13:03:56.767Z,-0.62
2022-12-11T13:06:39.659Z,-0.62
2022-12-11T13:09:18.545Z,-0.63
2022-12-11T13:11:54.026Z,-0.65
2022-12-11T13:14:32.699Z,-0.65
2022-12-11T13:17:28.728Z,-0.73
2022-12-11T13:20:19.687Z,-0.73
2022-12-11T13:22:58.062Z,-0.72
2022-12-11T13:25:35.192Z,-0.73
2022-12-11T13:28:09.866Z,-0.75
2022-12-11T13:30:40.777Z,-0.70
2022-12-11T13:33:19.637Z,-0.73
2022-12-11T13:36:09.908Z,-0.73
2022-12-11T13:38:51.148Z,-0.77
2022-12-11T13:41:22.626Z,-0.84
2022-12-11T13:43:54.108Z,-0.86
2022-12-11T13:46:29.945Z,-0.85
2022-12-11T13:49:03.227Z,-0.85
2022-12-11T13:51:38.438Z,-0.84
2022-12-11T13:54:17.763Z,-0.83
2022-12-11T13:57:05.869Z,-0.80
2022-12-11T13:59:38.748Z,-0.79
2022-12-11T14:02:20.080Z,-0.80
2022-12-11T14:04:53.446Z,-0.84
2022-12-11T14:07:30.404Z,-0.83
2022-12-11T14:10:08.350Z,-0.83
2022-12-11T14:12:40.187Z,-0.83
2022-12-11T14:15:15.465Z,-0.82
2022-12-11T14:17:51.503Z,-0.85
2022-12-11T14:20:24.815Z,-0.87
2022-12-11T14:23:07.936Z,-0.92
2022-12-11T14:25:38.315Z,-0.91
2022-12-11T14:28:18.445Z,-0.91
2022-12-11T14:30:51.643Z,-0.85
2022-12-11T14:33:27.594Z,-0.84
2022-12-11T14:35:59.603Z,-0.85
2022-12-11T14:38:36.856Z,-0.85
2022-12-11T14:41:14.262Z,-0.80
2022-12-11T14:43:49.795Z,-0.78
2022-12-11T14:46:24.228Z,-0.82
2022-12-11T14:49:06.644Z,-0.82
2022-12-11T14:51:43.524Z,-0.83
2022-12-11T14:54:25.981Z,-0.83
2022-12-11T14:56:57.332Z,-0.86
2022-12-11T14:59:32.253Z,-0.85
2022-12-11T15:02:05.827Z,-0.86
2022-12-11T15:04:36.774Z,-0.84
2022-12-11T15:07:21.473Z,-0.80
2022-12-11T15:09:58.850Z,-0.74
2022-12-11T15:12:32.774Z,-0.73
2022-12-11T15:15:18.824Z,-0.69
2022-12-11T15:17:53.380Z,-0.71
2022-12-11T15:20:28.097Z,-0.71
2022-12-11T15:23:01.035Z,-0.73
2022-12-11T15:25:33.380Z,-0.66
2022-12-11T15:28:04.317Z,-0.66
2022-12-11T15:30:39.366Z,-0.66
2022-12-11T15:33:23.359Z,-0.61
2022-12-11T15:36:01.794Z,-0.63
2022-12-11T15:38:35.532Z,-0.62
2022-12-11T15:41:15.342Z,-0.59
2022-12-11T15:43:58.077Z,-0.58
2022-12-11T15:46:39.432Z,-0.61
2022-12-11T15:49:14.319Z,-0.56
2022-12-11T15:51:49.223Z,-0.57
2022-12-11T15:54:19.746Z,-0.51
2022-12-11T15:56:53.949Z,-0.40
2022-12-11T15:59:24.828Z,-0.41
2022-12-11T16:01:55.311Z,-0.41
2022-12-11T16:04:25.469Z,-0.36
2022-12-11T16:07:00.504Z,-0.34
2022-12-11T16:09:31.478Z,-0.37
2022-12-11T16:12:04.525Z,-0.37
2022-12-11T16:14:38.675Z,-0.34
2022-12-11T16:17:10.731Z,-0.29
2022-12-11T16:19:42.015Z,-0.30
2022-12-11T16:22:13.794Z,-0.29
2022-12-11T16:24:44.706Z,-0.30
2022-12-11T16:27:22.958Z,-0.34
2022-12-11T16:29:54.777Z,-0.30
2022-12-11T16:32:27.865Z,-0.28
2022-12-11T16:35:01.616Z,-0.25
2022-12-11T16:37:33.714Z,-0.29
2022-12-11T16:40:06.835Z,-0.30
2022-12-11T16:42:41.515Z,-0.24
2022-12-11T16:45:23.218Z,-0.23
2022-12-11T16:47:56.695Z,-0.18
2022-12-11T16:50:27.296Z,-0.15
2022-12-11T16:52:58.646Z,-0.13
2022-12-11T16:55:29.275Z,-0.14
2022-12-11T16:58:01.994Z,-0.13
2022-12-11T17:00:36.024Z,-0.34
2022-12-11T17:03:06.721Z,-0.14
2022-12-11T17:05:37.032Z,-0.06
2022-12-11T17:08:08.215Z,-0.01
2022-12-11T17:10:41.967Z,-0.06
2022-12-11T17:13:14.173Z,-0.04
2022-12-11T17:15:44.942Z,0.03
2022-12-11T17:18:15.956Z,0.06
2022-12-11T17:20:47.134Z,0.02
2022-12-11T17:23:18.015Z,0.03
2022-12-11T17:25:48.292Z,0.13
2022-12-11T17:28:20.244Z,0.16
2022-12-11T17:30:50.453Z,0.16
2022-12-11T17:33:21.117Z,0.06
2022-12-11T17:35:51.884Z,0.08
2022-12-11T17:38:22.434Z,0.13
2022-12-11T17:40:52.728Z,0.19
2022-12-11T17:43:24.836Z,0.12
2022-12-11T17:45:55.582Z,0.12
2022-12-11T17:48:26.365Z,0.15
2022-12-11T17:50:56.965Z,0.17
2022-12-11T17:53:29.719Z,0.18
2022-12-11T17:56:03.913Z,0.18
2022-12-11T17:58:36.991Z,0.17
2022-12-11T18:01:11.882Z,0.14
2022-12-11T18:03:49.897Z,0.15
2022-12-11T18:06:20.205Z,0.12
2022-12-11T18:08:50.512Z,0.20
2022-12-11T18:11:23.234Z,0.16
2022-12-11T18:14:01.347Z,0.20
2022-12-11T18:16:33.846Z,0.21
2022-12-11T18:19:10.640Z,0.21
2022-12-11T18:21:46.927Z,0.21
2022-12-11T18:24:19.562Z,0.22
2022-12-11T18:26:51.980Z,0.24
2022-12-11T18:29:26.996Z,0.23
2022-12-11T18:31:59.390Z,0.19
2022-12-11T18:34:32.519Z,0.15
2022-12-11T18:37:03.465Z,0.16
2022-12-11T18:39:35.973Z,0.18
2022-12-11T18:42:31.879Z,0.22
2022-12-11T18:44:59.193Z,0.23
2022-12-11T18:47:31.923Z,0.22
2022-12-11T18:50:08.218Z,0.29
2022-12-11T18:52:43.033Z,0.25
2022-12-11T18:55:15.457Z,0.25
2022-12-11T18:57:46.812Z,0.31
2022-12-11T19:00:20.966Z,0.28
2022-12-11T19:02:53.635Z,0.22
2022-12-11T19:05:24.195Z,0.25
2022-12-11T19:07:54.260Z,0.24
2022-12-11T19:10:24.704Z,0.23
2022-12-11T19:12:54.824Z,0.21
2022-12-11T19:15:27.865Z,0.26
2022-12-11T19:17:57.934Z,0.33
2022-12-11T19:23:18.848Z,0.29
2022-12-11T19:25:50.891Z,0.28
2022-12-11T19:28:20.783Z,0.32
2022-12-11T19:30:54.080Z,0.31
2022-12-11T19:33:23.826Z,0.24
2022-12-11T19:36:03.814Z,0.30
2022-12-11T19:38:34.001Z,0.25
2022-12-11T19:41:08.635Z,0.28
2022-12-11T19:43:39.094Z,0.27
2022-12-11T19:46:12.218Z,0.26
2022-12-11T19:48:42.628Z,0.27
2022-12-11T19:51:15.435Z,0.29
2022-12-11T19:53:46.183Z,0.31
2022-12-11T19:56:17.577Z,0.35
2022-12-11T19:58:48.194Z,0.32
2022-12-11T20:01:28.812Z,0.30
2022-12-11T20:04:01.746Z,0.30
2022-12-11T20:06:34.384Z,0.34
2022-12-11T20:09:05.632Z,0.36
2022-12-11T20:11:37.737Z,0.32
2022-12-11T20:14:08.713Z,0.29
2022-12-11T20:17:09.937Z,0.30
2022-12-11T20:19:32.070Z,0.28
2022-12-11T20:22:02.793Z,0.30
2022-12-11T20:24:33.025Z,0.27
2022-12-11T20:27:03.762Z,0.31
2022-12-11T20:29:34.325Z,0.29
2022-12-11T20:32:06.530Z,0.33
2022-12-11T20:34:36.565Z,0.36
2022-12-11T20:37:08.095Z,0.35
2022-12-11T20:39:39.055Z,0.36
2022-12-11T20:42:11.707Z,0.36
2022-12-11T20:44:47.357Z,0.35
2022-12-11T20:47:22.096Z,0.34
2022-12-11T20:49:53.018Z,0.26
2022-12-11T20:52:23.924Z,0.32
2022-12-11T20:54:53.973Z,0.32
2022-12-11T20:57:24.474Z,0.29
2022-12-11T20:59:54.873Z,0.34
2022-12-11T21:02:26.965Z,0.36
2022-12-11T21:04:57.253Z,0.31
2022-12-11T21:07:28.667Z,0.29
2022-12-11T21:09:58.903Z,0.31
2022-12-11T21:12:31.700Z,0.33
2022-12-11T21:15:02.764Z,0.38
2022-12-11T21:17:36.313Z,0.37
2022-12-11T21:20:08.754Z,0.39
2022-12-11T21:22:39.253Z,0.38
2022-12-11T21:25:10.307Z,0.35
2022-12-11T21:27:41.396Z,0.41
2022-12-11T21:30:12.375Z,0.41
2022-12-11T21:32:47.933Z,0.42
2022-12-11T21:35:18.103Z,0.39
2022-12-11T21:37:49.092Z,0.37
2022-12-11T21:40:20.106Z,0.41
2022-12-11T21:42:52.059Z,0.38
2022-12-11T21:46:00.483Z,0.37
2022-12-11T21:48:18.545Z,0.42
2022-12-11T21:50:51.453Z,0.38
2022-12-11T21:53:22.205Z,0.43
2022-12-11T21:55:52.278Z,0.45
2022-12-11T21:58:22.763Z,0.24
2022-12-11T22:00:52.931Z,0.38
2022-12-11T22:03:24.974Z,0.38
2022-12-11T22:05:54.893Z,0.34
2022-12-11T22:08:25.756Z,0.30
2022-12-11T22:10:56.965Z,0.32
2022-12-11T22:13:27.574Z,0.33
2022-12-11T22:15:57.914Z,0.33
2022-12-11T22:18:30.262Z,0.31
2022-12-11T22:21:01.225Z,0.33
2022-12-11T22:23:31.733Z,0.37
2022-12-11T22:26:02.095Z,0.32
2022-12-11T22:28:32.954Z,0.26
2022-12-11T22:31:37.104Z,0.27
2022-12-11T22:34:09.113Z,0.39
2022-12-11T22:36:40.244Z,0.37
2022-12-11T22:39:10.752Z,-0.28
2022-12-11T22:41:42.585Z,0.44
2022-12-11T22:44:16.943Z,0.46
2022-12-11T22:46:57.834Z,0.48
2022-12-11T22:49:29.823Z,0.49
2022-12-11T22:51:59.922Z,0.52
2022-12-11T22:54:30.374Z,0.54
2022-12-11T22:57:01.875Z,0.60
2022-12-11T22:59:32.393Z,0.69
2022-12-11T23:02:02.440Z,0.67
2022-12-11T23:04:36.314Z,0.68
2022-12-11T23:07:06.745Z,0.72
2022-12-11T23:09:37.384Z,0.68
2022-12-11T23:12:12.041Z,0.67
2022-12-11T23:14:42.698Z,0.69
2022-12-11T23:17:12.825Z,0.67
2022-12-11T23:19:46.710Z,0.70
2022-12-11T23:22:16.910Z,0.70
2022-12-11T23:24:47.478Z,0.81
2022-12-11T23:27:17.488Z,0.80
2022-12-11T23:29:47.959Z,0.86
2022-12-11T23:32:18.112Z,0.63
2022-12-11T23:34:50.150Z,0.82
2022-12-11T23:37:19.839Z,0.84
2022-12-11T23:39:50.696Z,0.81
2022-12-11T23:42:20.961Z,0.85
2022-12-11T23:44:51.694Z,0.81
2022-12-11T23:47:22.279Z,0.75
2022-12-11T23:49:56.050Z,0.17
2022-12-11T23:52:26.930Z,0.88
2022-12-11T23:54:57.351Z,0.91
2022-12-11T23:57:27.389Z,0.82
2022-12-11T23:59:58.262Z,0.84
